Time;durP1;ratioP1;P1;durP2;ratioP2;P2;SDS_P1;SDS_P2;PMS_P1;PMS_P2;Temp;Humidity;BMP_temperature;BMP_pressure;BME280_temperature;BME280_humidity;BME280_pressure;Samples;Min_cycle;Max_cycle;Signal;HPM_P1;HPM_P2
2024/01/28 00:01:47;;;;;;;9.57;8.05;;;-1.60;99.90;;;;;;5010271;28;20226;-61
2024/01/28 00:04:14;;;;;;;8.75;7.95;;;-1.50;99.90;;;;;;5008095;28;20307;-60
2024/01/28 00:06:41;;;;;;;9.07;7.57;;;-1.60;99.90;;;;;;5007662;28;20208;-60
2024/01/28 00:09:08;;;;;;;8.30;7.43;;;-1.60;99.90;;;;;;5041576;22;20413;-60
2024/01/28 00:11:36;;;;;;;8.32;7.50;;;-1.50;99.90;;;;;;5029212;28;20199;-57
2024/01/28 00:14:03;;;;;;;10.07;6.72;;;-1.60;99.90;;;;;;5029269;28;20215;-60
2024/01/28 00:16:30;;;;;;;10.40;7.25;;;-1.60;99.90;;;;;;5028462;28;20643;-60
2024/01/28 00:18:58;;;;;;;10.68;7.90;;;-1.70;99.90;;;;;;5021320;28;20307;-61
2024/01/28 00:21:25;;;;;;;12.50;8.98;;;-1.60;99.90;;;;;;5004689;28;20215;-60
2024/01/28 00:23:52;;;;;;;11.23;7.75;;;-1.70;99.90;;;;;;5010898;28;20687;-59
2024/01/28 00:26:20;;;;;;;9.98;8.85;;;-1.70;99.90;;;;;;5010638;28;20208;-59
2024/01/28 00:28:47;;;;;;;9.63;7.72;;;-1.70;99.90;;;;;;5010788;28;20227;-60
2024/01/28 00:31:13;;;;;;;9.02;7.43;;;-1.70;99.90;;;;;;5014124;28;20221;-60
2024/01/28 00:33:41;;;;;;;11.55;8.25;;;-1.70;99.90;;;;;;5014208;28;20294;-59
2024/01/28 00:36:14;;;;;;;14.23;8.05;;;-1.70;99.90;;;;;;5014354;28;20300;-60
2024/01/28 00:38:41;;;;;;;16.45;8.90;;;-1.80;99.90;;;;;;5014441;28;20307;-60
2024/01/28 00:41:08;;;;;;;11.68;8.38;;;-1.80;99.90;;;;;;5013934;28;20358;-59
2024/01/28 00:43:35;;;;;;;11.90;8.05;;;-1.80;99.90;;;;;;5013954;28;20626;-60
2024/01/28 00:46:02;;;;;;;8.93;7.93;;;-1.80;99.90;;;;;;5014200;28;20206;-60
2024/01/28 00:48:28;;;;;;;10.02;8.93;;;-1.80;99.90;;;;;;5013953;28;20642;-60
2024/01/28 00:50:55;;;;;;;10.65;7.05;;;-1.80;99.90;;;;;;5013707;28;20307;-60
2024/01/28 00:53:23;;;;;;;8.80;7.00;;;-1.80;99.90;;;;;;5013956;28;20295;-59
2024/01/28 00:55:50;;;;;;;10.40;8.25;;;-1.90;99.90;;;;;;5014210;28;20287;-60
2024/01/28 00:58:17;;;;;;;11.57;8.15;;;-1.90;99.90;;;;;;5014063;28;20322;-59
2024/01/28 01:00:44;;;;;;;8.65;7.75;;;-1.90;99.90;;;;;;5013806;28;20290;-59
2024/01/28 01:03:11;;;;;;;13.13;7.50;;;-1.80;99.90;;;;;;5014159;28;20214;-59
2024/01/28 01:05:41;;;;;;;9.68;7.82;;;-1.90;99.90;;;;;;5013918;28;20266;-61
2024/01/28 01:08:08;;;;;;;10.43;7.85;;;-1.90;99.90;;;;;;5013731;28;20301;-60
2024/01/28 01:10:36;;;;;;;18.80;6.97;;;-1.90;99.90;;;;;;5013867;28;20286;-58
2024/01/28 01:13:03;;;;;;;9.93;8.70;;;-1.90;99.90;;;;;;5013696;28;20652;-60
2024/01/28 01:15:30;;;;;;;8.00;7.30;;;-1.90;99.90;;;;;;5014513;28;20207;-61
2024/01/28 01:17:57;;;;;;;12.35;7.82;;;-2.00;99.90;;;;;;5014550;28;20220;-60
2024/01/28 01:20:24;;;;;;;9.88;7.22;;;-2.00;99.90;;;;;;5006196;28;20231;-59
2024/01/28 01:22:51;;;;;;;9.50;7.57;;;-2.00;99.90;;;;;;5014278;28;20203;-60
2024/01/28 01:25:18;;;;;;;11.02;8.63;;;-2.00;99.90;;;;;;5013537;28;20596;-59
2024/01/28 01:27:48;;;;;;;7.47;6.78;;;-2.00;99.90;;;;;;5008012;28;20299;-59
2024/01/28 01:30:15;;;;;;;10.05;6.95;;;-2.00;99.90;;;;;;5007745;28;20620;-59
2024/01/28 01:32:42;;;;;;;12.45;6.85;;;-2.00;99.90;;;;;;5013368;28;20199;-59
2024/01/28 01:35:10;;;;;;;9.27;8.18;;;-2.00;99.90;;;;;;5011828;28;20302;-60
2024/01/28 01:37:37;;;;;;;8.20;7.20;;;-2.00;99.90;;;;;;5013054;28;20290;-61
2024/01/28 01:40:04;;;;;;;8.50;7.00;;;-2.00;99.90;;;;;;5012465;28;20236;-62
2024/01/28 01:42:31;;;;;;;10.02;7.90;;;-2.10;99.90;;;;;;5012127;28;20718;-58
2024/01/28 01:44:59;;;;;;;12.77;7.40;;;-2.10;99.90;;;;;;5012747;28;20302;-57
2024/01/28 01:47:27;;;;;;;9.48;7.38;;;-2.10;99.90;;;;;;5012873;28;20295;-61
2024/01/28 01:49:55;;;;;;;8.73;7.10;;;-2.10;99.90;;;;;;5012523;28;20718;-61
2024/01/28 01:52:22;;;;;;;9.50;7.70;;;-2.10;99.90;;;;;;5012473;28;20204;-61
2024/01/28 01:54:52;;;;;;;14.57;9.48;;;-2.10;99.90;;;;;;5012378;28;20208;-61
2024/01/28 01:57:21;;;;;;;5.90;5.50;;;-2.20;99.90;;;;;;5012854;28;20220;-59
2024/01/28 01:59:49;;;;;;;10.95;8.18;;;-2.20;99.90;;;;;;5012102;28;20226;-61
2024/01/28 02:02:18;;;;;;;7.30;6.55;;;-2.20;99.90;;;;;;5012241;28;20296;-61
2024/01/28 02:04:45;;;;;;;10.57;6.75;;;-2.20;99.90;;;;;;5012203;28;20314;-61
2024/01/28 02:07:12;;;;;;;8.40;7.35;;;-2.20;99.90;;;;;;5012571;28;20633;-61
2024/01/28 02:09:39;;;;;;;10.90;8.18;;;-2.20;99.90;;;;;;5011986;28;20238;-60
2024/01/28 02:12:06;;;;;;;8.73;7.65;;;-2.20;99.90;;;;;;5012305;28;20310;-61
2024/01/28 02:14:33;;;;;;;7.78;6.95;;;-2.20;99.90;;;;;;5012361;28;20644;-61
2024/01/28 02:17:01;;;;;;;14.82;7.93;;;-2.20;99.90;;;;;;5012344;28;20208;-60
2024/01/28 02:19:29;;;;;;;10.05;7.93;;;-2.20;99.90;;;;;;5007200;28;20223;-61
2024/01/28 02:21:56;;;;;;;8.48;6.53;;;-2.20;99.90;;;;;;5012220;28;20294;-62
2024/01/28 02:24:24;;;;;;;13.10;7.13;;;-2.30;99.90;;;;;;5012147;28;20299;-61
2024/01/28 02:26:51;;;;;;;8.07;6.85;;;-2.30;99.90;;;;;;5012234;28;20298;-60
2024/01/28 02:29:18;;;;;;;7.40;6.70;;;-2.30;99.90;;;;;;5011897;28;20234;-61
2024/01/28 02:31:46;;;;;;;8.60;7.80;;;-2.30;99.90;;;;;;5011961;28;20207;-61
2024/01/28 02:34:12;;;;;;;9.93;6.85;;;-2.30;99.90;;;;;;5012090;28;20294;-59
2024/01/28 02:36:39;;;;;;;11.00;7.15;;;-2.30;99.90;;;;;;5011966;28;20677;-61
2024/01/28 02:39:06;;;;;;;10.75;8.20;;;-2.30;99.90;;;;;;5011633;28;20223;-61
2024/01/28 02:41:34;;;;;;;7.30;6.60;;;-2.40;99.90;;;;;;5011831;28;20649;-61
2024/01/28 02:44:01;;;;;;;8.13;7.40;;;-2.40;99.90;;;;;;5011843;28;20210;-62
2024/01/28 02:46:28;;;;;;;8.05;6.95;;;-2.40;99.90;;;;;;5011825;28;20207;-61
2024/01/28 02:48:55;;;;;;;7.85;5.97;;;-2.40;99.90;;;;;;5011929;28;20238;-61
2024/01/28 02:51:22;;;;;;;12.70;6.25;;;-2.40;99.90;;;;;;5011669;28;20206;-61
2024/01/28 02:53:49;;;;;;;9.43;6.80;;;-2.40;99.90;;;;;;5011952;28;20210;-61
2024/01/28 02:56:15;;;;;;;10.15;6.35;;;-2.40;99.90;;;;;;5012137;28;20204;-61
2024/01/28 02:58:44;;;;;;;6.03;4.95;;;-2.50;99.90;;;;;;5010659;28;20266;-60
2024/01/28 03:01:10;;;;;;;7.70;5.70;;;-2.50;99.90;;;;;;5012052;28;20291;-60
2024/01/28 03:03:37;;;;;;;8.30;5.05;;;-2.50;99.90;;;;;;5012437;28;20204;-61
2024/01/28 03:06:04;;;;;;;7.80;4.97;;;-2.50;99.90;;;;;;5012465;28;20306;-60
2024/01/28 03:08:31;;;;;;;5.45;4.93;;;-2.50;99.90;;;;;;5012272;28;20236;-62
2024/01/28 03:10:58;;;;;;;5.53;4.97;;;-2.50;99.90;;;;;;5012290;28;20203;-61
2024/01/28 03:13:25;;;;;;;6.55;5.30;;;-2.50;99.90;;;;;;5012505;28;20828;-61
2024/01/28 03:15:54;;;;;;;6.35;4.20;;;-2.50;99.90;;;;;;5012273;28;20206;-61
2024/01/28 03:18:21;;;;;;;7.05;3.35;;;-2.60;99.90;;;;;;5012160;28;20228;-60
2024/01/28 03:20:48;;;;;;;5.53;4.03;;;-2.50;99.90;;;;;;5012046;28;20262;-60
2024/01/28 03:23:15;;;;;;;5.22;3.90;;;-2.60;99.90;;;;;;5010987;28;20218;-61
2024/01/28 03:25:43;;;;;;;6.53;3.78;;;-2.60;99.90;;;;;;5012314;28;20214;-61
2024/01/28 03:28:10;;;;;;;6.40;4.18;;;-2.60;99.90;;;;;;5011600;28;20700;-61
2024/01/28 03:30:36;;;;;;;9.38;4.50;;;-2.60;99.90;;;;;;5012117;28;20352;-62
2024/01/28 03:33:05;;;;;;;4.03;3.80;;;-2.60;99.90;;;;;;5011044;28;20290;-61
2024/01/28 03:35:32;;;;;;;4.97;4.47;;;-2.60;99.90;;;;;;5011703;28;20216;-61
2024/01/28 03:38:00;;;;;;;8.43;3.88;;;-2.60;99.90;;;;;;5012336;28;20302;-61
2024/01/28 03:40:27;;;;;;;4.80;4.40;;;-2.60;99.90;;;;;;5012036;28;20266;-61
2024/01/28 03:42:54;;;;;;;5.85;5.35;;;-2.70;99.90;;;;;;5012469;28;20217;-61
2024/01/28 03:45:20;;;;;;;10.45;5.00;;;-2.70;99.90;;;;;;5012626;28;20651;-60
2024/01/28 03:47:47;;;;;;;6.88;5.30;;;-2.70;99.90;;;;;;5012381;28;20306;-60
2024/01/28 03:50:19;;;;;;;8.05;5.10;;;-2.70;99.90;;;;;;5011941;28;20638;-61
2024/01/28 03:52:46;;;;;;;5.40;4.55;;;-2.70;99.90;;;;;;5012551;28;20326;-61
2024/01/28 03:55:13;;;;;;;8.18;5.68;;;-2.70;99.90;;;;;;5012250;28;20211;-59
2024/01/28 03:57:40;;;;;;;9.60;5.43;;;-2.80;99.90;;;;;;5012627;28;20698;-61
2024/01/28 04:00:11;;;;;;;6.82;6.22;;;-2.80;99.90;;;;;;5012217;28;20227;-61
2024/01/28 04:02:38;;;;;;;10.32;5.45;;;-2.80;99.90;;;;;;5012523;28;20901;-61
2024/01/28 04:05:05;;;;;;;9.07;6.65;;;-2.80;99.90;;;;;;5014725;28;20314;-61
2024/01/28 04:07:34;;;;;;;9.15;5.70;;;-2.80;99.90;;;;;;5015666;28;20211;-62
2024/01/28 04:10:01;;;;;;;7.53;5.82;;;-2.80;99.90;;;;;;5015745;28;20231;-61
2024/01/28 04:12:27;;;;;;;7.35;6.25;;;-2.70;99.90;;;;;;5015906;28;20307;-62
2024/01/28 04:14:54;;;;;;;13.75;6.97;;;-2.80;99.90;;;;;;5016109;28;20236;-62
2024/01/28 04:17:21;;;;;;;7.18;6.40;;;-2.80;99.90;;;;;;5015855;28;20258;-62
2024/01/28 04:19:48;;;;;;;10.52;7.18;;;-2.80;99.90;;;;;;5015767;28;20666;-62
2024/01/28 04:22:15;;;;;;;7.25;5.40;;;-2.80;99.90;;;;;;5015665;28;20644;-61
2024/01/28 04:24:43;;;;;;;8.02;5.80;;;-2.80;99.90;;;;;;5015803;28;20303;-62
2024/01/28 04:27:10;;;;;;;7.25;5.13;;;-2.80;99.90;;;;;;5015582;28;20306;-62
2024/01/28 04:29:37;;;;;;;6.35;5.63;;;-2.80;99.90;;;;;;5015413;28;20322;-61
2024/01/28 04:32:04;;;;;;;11.35;6.97;;;-2.80;99.90;;;;;;5015679;28;20754;-61
2024/01/28 04:34:31;;;;;;;10.15;5.32;;;-2.80;99.90;;;;;;5015662;28;20675;-60
2024/01/28 04:36:58;;;;;;;7.13;5.68;;;-2.80;99.90;;;;;;5015157;28;20298;-61
2024/01/28 04:39:25;;;;;;;8.00;6.70;;;-2.80;99.90;;;;;;5015476;28;20323;-61
2024/01/28 04:41:53;;;;;;;12.85;5.72;;;-2.80;99.90;;;;;;5015434;28;20239;-61
2024/01/28 04:44:21;;;;;;;8.25;4.78;;;-2.80;99.90;;;;;;5015448;28;20294;-61
2024/01/28 04:46:48;;;;;;;5.65;5.10;;;-2.80;99.90;;;;;;5015073;28;20295;-62
2024/01/28 04:49:15;;;;;;;9.00;6.60;;;-2.90;99.90;;;;;;5014789;28;20227;-61
2024/01/28 04:51:42;;;;;;;13.32;7.03;;;-2.90;99.90;;;;;;5014706;28;20302;-60
2024/01/28 04:54:09;;;;;;;6.80;5.75;;;-2.90;99.90;;;;;;5015423;28;20339;-61
2024/01/28 04:56:36;;;;;;;7.47;6.18;;;-2.90;99.90;;;;;;5014913;28;20214;-62
2024/01/28 04:59:04;;;;;;;7.18;6.47;;;-2.90;99.90;;;;;;5013439;28;20310;-61
2024/01/28 05:01:32;;;;;;;12.88;7.03;;;-2.90;99.90;;;;;;5014792;28;20294;-61
2024/01/28 05:04:00;;;;;;;10.27;5.57;;;-2.90;99.90;;;;;;5015041;28;20203;-61
2024/01/28 05:06:34;;;;;;;8.43;7.82;;;-2.90;99.90;;;;;;5014606;28;20218;-61
2024/01/28 05:09:01;;;;;;;7.38;5.60;;;-2.90;99.90;;;;;;5014602;28;20243;-61
2024/01/28 05:11:28;;;;;;;15.38;6.93;;;-2.90;99.90;;;;;;5014792;28;20279;-62
2024/01/28 05:13:55;;;;;;;14.43;7.35;;;-2.90;99.90;;;;;;5014649;28;20212;-60
2024/01/28 05:16:23;;;;;;;9.13;7.30;;;-2.90;99.90;;;;;;5014700;28;20212;-61
2024/01/28 05:18:50;;;;;;;7.97;6.80;;;-2.90;99.90;;;;;;5014713;28;20326;-61
2024/01/28 05:21:17;;;;;;;10.48;6.88;;;-2.90;99.90;;;;;;5014339;28;20633;-60
2024/01/28 05:23:44;;;;;;;7.32;5.05;;;-2.90;99.90;;;;;;5014566;28;20302;-61
2024/01/28 05:26:11;;;;;;;8.55;5.50;;;-2.90;99.90;;;;;;5014387;28;20776;-61
2024/01/28 05:28:37;;;;;;;12.57;6.72;;;-2.90;99.90;;;;;;5014495;28;20254;-62
2024/01/28 05:31:04;;;;;;;13.13;8.27;;;-2.90;99.90;;;;;;5014183;28;20732;-62
2024/01/28 05:33:37;;;;;;;10.15;6.40;;;-3.00;99.90;;;;;;5014171;28;20294;-62
2024/01/28 05:36:10;;;;;;;11.25;6.60;;;-3.00;99.90;;;;;;5014229;28;20208;-62
2024/01/28 05:38:37;;;;;;;9.93;6.18;;;-2.90;99.90;;;;;;5014338;28;20235;-62
2024/01/28 05:41:04;;;;;;;11.60;7.30;;;-3.00;99.90;;;;;;5013901;28;20769;-62
2024/01/28 05:43:31;;;;;;;7.55;6.00;;;-3.00;99.90;;;;;;5014356;28;20210;-60
2024/01/28 05:45:58;;;;;;;8.90;7.32;;;-3.00;99.90;;;;;;5013932;28;20207;-62
2024/01/28 05:48:25;;;;;;;8.38;5.50;;;-3.00;99.90;;;;;;5013771;28;20326;-61
2024/01/28 05:50:53;;;;;;;15.68;6.63;;;-3.10;99.90;;;;;;5013752;28;20278;-61
2024/01/28 05:53:20;;;;;;;6.90;6.20;;;-3.10;99.90;;;;;;5013389;28;20600;-63
2024/01/28 05:55:47;;;;;;;13.23;7.38;;;-3.10;99.90;;;;;;5014183;28;20298;-61
2024/01/28 05:58:14;;;;;;;10.57;8.40;;;-3.10;99.90;;;;;;5013732;28;20209;-61
2024/01/28 06:00:41;;;;;;;12.93;6.90;;;-3.20;99.90;;;;;;5013479;28;20766;-62
2024/01/28 06:03:08;;;;;;;8.23;7.50;;;-3.20;99.90;;;;;;5014060;28;20298;-61
2024/01/28 06:05:35;;;;;;;8.70;7.20;;;-3.20;99.90;;;;;;5013595;28;20208;-63
2024/01/28 06:08:03;;;;;;;11.93;6.88;;;-3.20;99.90;;;;;;5013316;28;20315;-62
2024/01/28 06:10:30;;;;;;;10.70;7.93;;;-3.20;99.90;;;;;;5013126;28;20319;-61
2024/01/28 06:12:56;;;;;;;7.80;6.93;;;-3.20;99.90;;;;;;5013079;28;20212;-62
2024/01/28 06:15:23;;;;;;;9.68;6.85;;;-3.20;99.90;;;;;;5013141;28;20317;-60
2024/01/28 06:17:50;;;;;;;7.35;6.60;;;-3.20;99.90;;;;;;5012810;28;20302;-62
2024/01/28 06:20:17;;;;;;;9.07;7.93;;;-3.20;99.90;;;;;;5012445;28;20223;-60
2024/01/28 06:22:44;;;;;;;10.60;6.68;;;-3.20;99.90;;;;;;5013148;28;20306;-61
2024/01/28 06:25:12;;;;;;;11.50;8.70;;;-3.20;99.90;;;;;;5012888;28;20734;-61
2024/01/28 06:27:39;;;;;;;9.68;7.20;;;-3.20;99.90;;;;;;5012336;28;20262;-60
2024/01/28 06:30:07;;;;;;;8.00;6.32;;;-3.20;99.90;;;;;;5012730;28;20598;-61
2024/01/28 06:32:34;;;;;;;11.45;6.68;;;-3.20;99.90;;;;;;5012521;28;20291;-61
2024/01/28 06:35:01;;;;;;;7.90;6.55;;;-3.20;99.90;;;;;;5012455;28;20296;-61
2024/01/28 06:37:28;;;;;;;9.95;6.65;;;-3.20;99.90;;;;;;5012815;28;20298;-61
2024/01/28 06:39:55;;;;;;;6.38;5.88;;;-3.20;99.90;;;;;;5012601;28;20282;-61
2024/01/28 06:42:24;;;;;;;9.88;8.98;;;-3.30;99.90;;;;;;5012383;28;20295;-61
2024/01/28 06:44:51;;;;;;;7.75;6.82;;;-3.30;99.90;;;;;;5012438;28;20214;-61
2024/01/28 06:47:18;;;;;;;10.32;7.07;;;-3.30;99.90;;;;;;5012443;28;20207;-60
2024/01/28 06:49:45;;;;;;;6.85;6.22;;;-3.30;99.90;;;;;;5011969;28;20232;-61
2024/01/28 06:52:12;;;;;;;9.05;7.63;;;-3.30;99.90;;;;;;5012394;28;20203;-60
2024/01/28 06:54:40;;;;;;;7.88;7.13;;;-3.40;99.90;;;;;;5012133;28;20214;-60
2024/01/28 06:57:07;;;;;;;7.80;6.88;;;-3.40;99.90;;;;;;5012352;28;20219;-60
2024/01/28 06:59:35;;;;;;;9.40;7.18;;;-3.40;99.90;;;;;;5012183;28;20231;-60
2024/01/28 07:02:02;;;;;;;8.50;6.97;;;-3.40;99.90;;;;;;5011833;28;20245;-61
2024/01/28 07:04:29;;;;;;;7.07;6.15;;;-3.40;99.90;;;;;;5012312;28;20647;-63
2024/01/28 07:06:56;;;;;;;11.20;6.30;;;-3.40;99.90;;;;;;5012327;28;20303;-61
2024/01/28 07:09:23;;;;;;;8.13;7.15;;;-3.40;99.90;;;;;;5012077;28;20673;-63
2024/01/28 07:11:50;;;;;;;8.05;7.20;;;-3.40;99.90;;;;;;5011602;28;20283;-61
2024/01/28 07:14:18;;;;;;;10.88;7.45;;;-3.30;99.90;;;;;;5012075;28;20208;-61
2024/01/28 07:16:46;;;;;;;13.63;6.78;;;-3.30;99.90;;;;;;5011874;28;20222;-61
2024/01/28 07:19:13;;;;;;;7.22;5.93;;;-3.30;99.90;;;;;;5012023;28;20320;-61
2024/01/28 07:21:40;;;;;;;13.82;6.68;;;-3.30;99.90;;;;;;5011715;28;20212;-61
2024/01/28 07:24:08;;;;;;;10.25;5.85;;;-3.30;99.90;;;;;;5011889;28;20298;-61
2024/01/28 07:26:35;;;;;;;12.48;8.15;;;-3.30;99.90;;;;;;5011990;28;20214;-61
2024/01/28 07:29:03;;;;;;;8.50;6.60;;;-3.30;99.90;;;;;;5011693;28;20318;-61
2024/01/28 07:31:30;;;;;;;10.95;6.80;;;-3.30;99.90;;;;;;5011502;28;20278;-61
2024/01/28 07:33:58;;;;;;;6.35;5.78;;;-3.30;99.90;;;;;;5008602;28;20219;-61
2024/01/28 07:36:25;;;;;;;6.80;6.18;;;-3.30;99.90;;;;;;5008556;28;20212;-61
2024/01/28 07:38:52;;;;;;;6.82;6.18;;;-3.30;99.90;;;;;;5012134;28;20226;-61
2024/01/28 07:41:19;;;;;;;8.00;5.75;;;-3.30;99.90;;;;;;5015678;28;20265;-61
2024/01/28 07:43:45;;;;;;;8.10;7.32;;;-3.20;99.90;;;;;;5014928;28;20207;-61
2024/01/28 07:46:12;;;;;;;7.75;7.05;;;-3.20;99.90;;;;;;5015623;28;20342;-60
2024/01/28 07:48:39;;;;;;;7.95;5.93;;;-3.20;99.90;;;;;;5015368;28;20310;-61
2024/01/28 07:51:08;;;;;;;8.57;6.07;;;-3.20;99.90;;;;;;5015144;28;20223;-61
2024/01/28 07:53:35;;;;;;;7.43;6.40;;;-3.20;99.90;;;;;;5014878;28;20196;-60
2024/01/28 07:56:02;;;;;;;7.22;6.47;;;-3.20;99.90;;;;;;5014963;28;20204;-61
2024/01/28 07:58:29;;;;;;;6.82;6.22;;;-3.20;99.90;;;;;;5014990;28;20666;-61
2024/01/28 08:00:56;;;;;;;8.60;7.40;;;-3.10;99.90;;;;;;5014740;28;20223;-60
2024/01/28 08:03:23;;;;;;;6.75;6.25;;;-3.10;99.90;;;;;;5014981;28;20609;-60
2024/01/28 08:05:50;;;;;;;7.93;7.13;;;-3.10;99.90;;;;;;5015076;28;20211;-61
2024/01/28 08:08:19;;;;;;;7.15;6.50;;;-3.00;99.90;;;;;;5015192;28;20741;-60
2024/01/28 08:10:46;;;;;;;9.88;6.78;;;-3.00;99.90;;;;;;5014995;28;20224;-61
2024/01/28 08:13:12;;;;;;;7.20;6.50;;;-3.00;99.90;;;;;;5015277;28;20266;-61
2024/01/28 08:15:39;;;;;;;10.13;7.68;;;-3.00;99.90;;;;;;5015192;28;20239;-61
2024/01/28 08:18:06;;;;;;;13.60;7.00;;;-3.00;99.90;;;;;;5014681;28;20769;-62
2024/01/28 08:20:33;;;;;;;7.13;5.78;;;-2.90;99.90;;;;;;5014868;28;20214;-61
2024/01/28 08:23:00;;;;;;;8.73;6.53;;;-2.90;99.90;;;;;;5015253;28;20204;-61
2024/01/28 08:25:28;;;;;;;12.02;8.63;;;-2.90;99.90;;;;;;5014882;28;20210;-61
2024/01/28 08:27:56;;;;;;;6.97;6.30;;;-2.90;99.90;;;;;;5014870;28;20214;-61
2024/01/28 08:30:23;;;;;;;15.23;7.80;;;-2.80;99.90;;;;;;5014349;28;20231;-60
2024/01/28 08:32:50;;;;;;;12.27;8.25;;;-2.80;99.90;;;;;;5014770;28;20215;-61
2024/01/28 08:35:19;;;;;;;9.57;8.57;;;-2.80;99.90;;;;;;5015004;28;20215;-60
2024/01/28 08:37:46;;;;;;;11.35;8.38;;;-2.70;99.90;;;;;;5014562;28;20204;-61
2024/01/28 08:40:12;;;;;;;9.23;8.35;;;-2.70;99.90;;;;;;5014850;28;20726;-61
2024/01/28 08:42:41;;;;;;;9.18;7.85;;;-2.70;99.90;;;;;;5014568;28;20298;-61
2024/01/28 08:45:09;;;;;;;12.70;10.00;;;-2.60;99.90;;;;;;5014247;28;20631;-61
2024/01/28 08:47:36;;;;;;;14.90;9.85;;;-2.60;99.90;;;;;;5014545;28;20266;-61
2024/01/28 08:50:03;;;;;;;13.55;11.32;;;-2.60;99.90;;;;;;5013339;28;20823;-61
2024/01/28 08:52:30;;;;;;;12.55;11.35;;;-2.50;99.90;;;;;;5014310;28;20247;-61
2024/01/28 08:54:56;;;;;;;16.63;11.23;;;-2.50;99.90;;;;;;5014815;28;20640;-61
2024/01/28 08:57:23;;;;;;;25.83;12.43;;;-2.50;99.90;;;;;;5014478;28;20265;-61
2024/01/28 08:59:52;;;;;;;14.40;12.70;;;-2.50;99.90;;;;;;5014378;28;20320;-60
2024/01/28 09:02:18;;;;;;;12.90;11.40;;;-2.40;99.90;;;;;;5014163;28;20733;-61
2024/01/28 09:04:45;;;;;;;16.58;14.90;;;-2.40;99.90;;;;;;5014120;28;20294;-61
2024/01/28 09:07:12;;;;;;;19.75;14.48;;;-2.40;99.90;;;;;;5014226;28;20875;-61
2024/01/28 09:09:39;;;;;;;19.83;15.48;;;-2.30;99.90;;;;;;5014191;28;20322;-61
2024/01/28 09:12:06;;;;;;;20.98;15.13;;;-2.30;99.90;;;;;;5014084;28;20648;-61
2024/01/28 09:14:33;;;;;;;17.15;12.57;;;-2.30;99.90;;;;;;5014109;28;20311;-60
2024/01/28 09:17:02;;;;;;;15.63;12.05;;;-2.20;99.90;;;;;;5014483;28;20298;-61
2024/01/28 09:19:28;;;;;;;14.90;11.52;;;-2.20;99.90;;;;;;5014045;28;20231;-61
2024/01/28 09:21:55;;;;;;;13.13;11.57;;;-2.10;99.90;;;;;;5013618;28;20302;-61
2024/01/28 09:24:22;;;;;;;12.02;10.70;;;-2.10;99.90;;;;;;5013425;28;20212;-61
2024/01/28 09:26:49;;;;;;;15.02;13.40;;;-2.10;99.90;;;;;;5013723;28;20226;-62
2024/01/28 09:29:16;;;;;;;18.45;11.70;;;-2.00;99.90;;;;;;5013800;28;20233;-62
2024/01/28 09:31:45;;;;;;;15.23;11.35;;;-2.00;99.90;;;;;;5000406;28;20315;-61
2024/01/28 09:34:13;;;;;;;14.82;10.80;;;-1.90;99.90;;;;;;5010656;28;20215;-61
2024/01/28 09:36:40;;;;;;;10.40;8.90;;;-1.90;99.90;;;;;;5014325;28;20290;-61
2024/01/28 09:39:08;;;;;;;14.63;10.07;;;-1.80;99.90;;;;;;5013913;28;20760;-61
2024/01/28 09:41:43;;;;;;;10.18;8.75;;;-1.80;99.90;;;;;;5013430;28;20202;-60
2024/01/28 09:44:10;;;;;;;12.18;9.93;;;-1.70;99.90;;;;;;5013994;28;20208;-59
2024/01/28 09:46:37;;;;;;;9.13;8.43;;;-1.60;99.90;;;;;;5012375;28;20234;-61
2024/01/28 09:49:05;;;;;;;13.50;9.88;;;-1.50;99.90;;;;;;5013591;28;20234;-61
2024/01/28 09:51:33;;;;;;;10.45;9.07;;;-1.40;99.90;;;;;;5013519;28;20231;-61
2024/01/28 09:54:00;;;;;;;10.55;9.45;;;-1.30;99.90;;;;;;5013624;28;20579;-61
2024/01/28 09:56:28;;;;;;;8.75;8.05;;;-1.10;99.90;;;;;;5013608;28;20299;-62
2024/01/28 09:58:55;;;;;;;11.85;10.65;;;-1.00;99.90;;;;;;5011027;28;20318;-62
2024/01/28 10:01:24;;;;;;;16.67;8.82;;;-0.90;99.90;;;;;;5012140;28;20282;-61
2024/01/28 10:03:51;;;;;;;12.15;9.20;;;-0.80;99.90;;;;;;5013373;28;20216;-61
2024/01/28 10:06:18;;;;;;;13.95;9.60;;;-0.60;99.90;;;;;;5012500;28;20777;-62
2024/01/28 10:08:47;;;;;;;12.00;9.50;;;-0.50;99.90;;;;;;5013012;28;20241;-62
2024/01/28 10:11:15;;;;;;;9.75;8.40;;;-0.30;99.90;;;;;;5012702;28;20238;-62
2024/01/28 10:13:42;;;;;;;13.93;10.05;;;-0.20;99.90;;;;;;5012294;28;20214;-62
2024/01/28 10:16:09;;;;;;;10.60;9.20;;;0.00;99.90;;;;;;5012723;28;20295;-61
2024/01/28 10:18:36;;;;;;;9.27;8.13;;;0.10;99.90;;;;;;5012694;28;20613;-61
2024/01/28 10:21:03;;;;;;;8.63;7.72;;;0.30;99.90;;;;;;5012416;28;20934;-60
2024/01/28 10:23:35;;;;;;;18.00;7.95;;;0.40;99.90;;;;;;5012432;28;20199;-61
2024/01/28 10:26:05;;;;;;;8.13;7.15;;;0.60;99.90;;;;;;5012619;28;20211;-61
2024/01/28 10:28:32;;;;;;;9.40;8.48;;;0.70;99.90;;;;;;5011814;28;20314;-62
2024/01/28 10:30:59;;;;;;;8.70;7.90;;;0.90;99.90;;;;;;5012484;28;20255;-61
2024/01/28 10:33:27;;;;;;;8.55;7.65;;;1.00;99.90;;;;;;5012668;28;20286;-61
2024/01/28 10:35:54;;;;;;;9.70;8.80;;;1.20;99.90;;;;;;5012314;28;20294;-62
2024/01/28 10:38:24;;;;;;;13.30;8.25;;;1.30;99.90;;;;;;4998398;28;20310;-60
2024/01/28 10:40:52;;;;;;;9.23;7.15;;;1.60;99.90;;;;;;5011544;28;20200;-61
2024/01/28 10:43:27;;;;;;;9.30;8.05;;;1.80;99.90;;;;;;5009855;28;20298;-61
2024/01/28 10:45:57;;;;;;;9.00;8.15;;;2.10;99.90;;;;;;5011903;28;20246;-61
2024/01/28 10:48:24;;;;;;;9.93;7.88;;;2.30;99.90;;;;;;5011939;28;20305;-60
2024/01/28 10:50:53;;;;;;;10.23;7.45;;;2.60;99.90;;;;;;5011656;28;20310;-61
2024/01/28 10:53:22;;;;;;;11.52;9.35;;;2.80;99.90;;;;;;5011829;28;20302;-61
2024/01/28 10:55:49;;;;;;;9.30;8.25;;;3.20;99.90;;;;;;5011561;28;20210;-62
2024/01/28 10:58:17;;;;;;;7.57;6.68;;;3.50;99.90;;;;;;5011817;28;20624;-61
2024/01/28 11:00:46;;;;;;;7.78;6.72;;;3.70;99.90;;;;;;5011925;28;20200;-61
2024/01/28 11:03:14;;;;;;;9.63;6.88;;;4.00;99.90;;;;;;5012044;28;20208;-60
2024/01/28 11:05:41;;;;;;;8.77;7.97;;;4.20;99.90;;;;;;5011834;28;20204;-62
2024/01/28 11:08:08;;;;;;;9.50;6.80;;;4.50;99.90;;;;;;5011607;28;20222;-61
2024/01/28 11:10:35;;;;;;;12.02;7.07;;;4.80;99.90;;;;;;5011836;28;20290;-62
2024/01/28 11:13:04;;;;;;;9.50;8.25;;;5.00;99.90;;;;;;5007600;28;20322;-61
2024/01/28 11:15:31;;;;;;;15.57;8.18;;;5.20;99.90;;;;;;5011373;28;20203;-62
2024/01/28 11:18:01;;;;;;;6.95;6.35;;;5.40;99.90;;;;;;5011695;28;20211;-62
2024/01/28 11:20:30;;;;;;;7.80;7.00;;;5.60;99.90;;;;;;5011297;28;20643;-61
2024/01/28 11:22:59;;;;;;;10.27;7.28;;;5.80;99.90;;;;;;5012060;28;20204;-62
2024/01/28 11:25:26;;;;;;;12.73;6.75;;;6.00;99.90;;;;;;5011946;28;20797;-61
2024/01/28 11:27:59;;;;;;;10.05;7.80;;;6.20;99.90;;;;;;5011990;28;20211;-61
2024/01/28 11:30:26;;;;;;;8.25;7.45;;;6.30;99.90;;;;;;5011791;28;20294;-61
2024/01/28 11:33:08;;;;;;;8.32;7.03;;;6.50;99.90;;;;;;5010970;28;20318;-62
2024/01/28 11:35:35;;;;;;;8.95;7.22;;;6.60;99.90;;;;;;5004409;28;20211;-61
2024/01/28 11:38:05;;;;;;;8.32;7.45;;;6.60;99.90;;;;;;5011143;28;20204;-61
2024/01/28 11:40:36;;;;;;;10.27;6.45;;;6.80;99.90;;;;;;5012073;28;20302;-62
2024/01/28 11:43:06;;;;;;;7.85;7.25;;;6.90;99.90;;;;;;5011627;28;20288;-62
2024/01/28 11:45:33;;;;;;;9.27;7.57;;;7.10;99.90;;;;;;5011613;28;20754;-61
2024/01/28 11:48:06;;;;;;;7.43;6.63;;;7.10;99.90;;;;;;5011605;28;20294;-62
2024/01/28 11:50:33;;;;;;;11.07;7.88;;;7.20;99.90;;;;;;5009664;28;20230;-61
2024/01/28 11:53:00;;;;;;;10.27;6.32;;;7.30;99.90;;;;;;5011329;28;20853;-62
2024/01/28 11:55:27;;;;;;;12.00;8.60;;;7.30;99.90;;;;;;5011623;28;20208;-62
2024/01/28 11:57:54;;;;;;;9.13;6.43;;;7.30;99.90;;;;;;5010659;28;20204;-61
2024/01/28 12:00:21;;;;;;;6.80;6.20;;;7.40;99.90;;;;;;5007289;28;20696;-61
2024/01/28 12:02:48;;;;;;;6.60;6.00;;;7.50;99.90;;;;;;5007656;28;20205;-61
2024/01/28 12:05:16;;;;;;;8.82;7.07;;;7.50;99.90;;;;;;5007960;28;20486;-61
2024/01/28 12:07:43;;;;;;;7.63;6.05;;;7.60;99.90;;;;;;5011103;28;20294;-61
2024/01/28 12:10:12;;;;;;;9.02;6.72;;;7.50;99.90;;;;;;5010769;28;20285;-61
2024/01/28 12:12:41;;;;;;;7.57;6.82;;;7.60;99.90;;;;;;5008930;28;20227;-62
2024/01/28 12:15:09;;;;;;;7.10;6.40;;;7.70;99.90;;;;;;5007476;28;20226;-62
2024/01/28 12:17:37;;;;;;;6.90;6.20;;;7.80;99.90;;;;;;5010949;28;20587;-61
2024/01/28 12:20:06;;;;;;;6.72;6.10;;;7.90;99.90;;;;;;5010937;28;20607;-61
2024/01/28 12:22:38;;;;;;;8.57;5.83;;;8.10;99.90;;;;;;5010842;28;20717;-61
2024/01/28 12:25:09;;;;;;;6.47;5.83;;;8.20;99.90;;;;;;5007613;28;21109;-61
2024/01/28 12:27:36;;;;;;;8.00;5.93;;;8.40;99.90;;;;;;5014110;28;20450;-61
2024/01/28 12:30:03;;;;;;;7.77;7.10;;;8.60;99.90;;;;;;5013904;28;20481;-61
2024/01/28 12:32:30;;;;;;;6.97;6.27;;;8.90;99.90;;;;;;5001347;28;20491;-60
2024/01/28 12:35:03;;;;;;;8.17;5.67;;;9.20;99.90;;;;;;5011949;28;20533;-61
2024/01/28 12:37:30;;;;;;;6.00;5.37;;;9.40;99.90;;;;;;5002561;28;20521;-60
2024/01/28 12:39:59;;;;;;;8.43;6.40;;;9.60;99.90;;;;;;5013869;28;20481;-60
2024/01/28 12:42:25;;;;;;;11.77;8.10;;;9.90;99.90;;;;;;5014101;28;20454;-61
2024/01/28 12:44:52;;;;;;;6.83;6.07;;;10.10;99.90;;;;;;5014296;28;20538;-61